CheckWX is a tool to help pilots better visualize weather data.  It is not intended as a substitute for an official pre-flight weather briefing.

03:43:18 UTC

KRWI METAR
Rocky Mount-Wilson Regional Airport
Rocky Mount, North Carolina, USA
Current

50 mins ago

KRWI 230253Z AUTO 20007KT 10SM CLR 28/22 A2991 RMK AO2 LTG DSNT NE SLP128 60000 T02830222 53010
Observed
Jul-23 @ 02:53 UTC
Wind
  • 200° at 7 KTS
Visibility
10 SM
Flight Rules
VFR
Cloud Levels
  • Clear skies
Temperature
28°C / 82°F
Dewpoint
22°C / 72°F
Heat Index
30°C / 86°F
Humidity
70%
Altimeter
29.91" Hg
Pressure
1012.92 hPa
Previous

2 hours ago

KRWI 230153Z AUTO 18007KT 10SM CLR 28/22 A2990 RMK AO2 RAE0058 TSB15E30 SLP124 P0000 T02780222
Observed
Jul-23 @ 01:53 UTC
Wind
  • 180° at 7 KTS
Visibility
10 SM
Flight Rules
VFR
Cloud Levels
  • Clear skies
Temperature
28°C / 82°F
Dewpoint
22°C / 72°F
Heat Index
30°C / 86°F
Humidity
70%
Altimeter
29.9" Hg
Pressure
1012.52 hPa
Current Rain
0.01"
Previous

2 hours ago

KRWI 230136Z AUTO 19006KT 10SM VCTS CLR 28/22 A2990 RMK AO2 LTG DSNT E RAE0058 TSB15E30 P0000 T02780222
Observed
Jul-23 @ 01:36 UTC
Wind
  • 190° at 6 KTS
Visibility
10 SM
Flight Rules
VFR
Conditions
Area Thunderstorm
Cloud Levels
  • Clear skies
Temperature
28°C / 82°F
Dewpoint
22°C / 72°F
Heat Index
30°C / 86°F
Humidity
70%
Altimeter
29.9" Hg
Pressure
1012.52 hPa
Current Rain
0.01"